Williamsville, Missouri
Current Conditions -  °F | °C
As of 12:53 AM on Thursday 27 Nov 2014 (Local Time) from KPOF Reporting Station
Overcast Overcast  
Wind Chill: 29°   Ceiling: 2400
Heat Index: 38°   Visibility: 10mi
Dew Point: 29°   Wind: 17mph
Humidity: 70%   Direction: 320°NW
Pressure: 30.22"   Gusts: 26mph
Location:  36.97°N, 90.55°W
Report Text: KPOF 270653Z AUTO 32015G23KT 10SM OVC024 03/M02 A3022 RMK AO2 PK WND 31030/0615 SLP236 T00331017
Loading
Personal Weather Stations






























Interactive Weather Map New forecast layout! Learn more

10-Day Weather Forecast

Advertisements
Track Severe Weather on mobile